Billie H — WCY4992 — position and weather

sailwx.info

Track history (hours):
 
Tides and Currents Weather Stations Pressure Air Temp Water Temp Dewpoint Dewpoint Depression Visibility Wind Speed Wind Dir Waves Ship Positions

Billie H

Owner: BOYER TOWING INC, KETCHIKAN, AK. More information available from US FCC via Universal Licensing System and Coast Guard Vessel Documentation Center.

Last reported at 2018-Apr-19 23:17 UTC. Time now 2018-Apr-25 10:38 UTC.
Position N 47°32' W 122°20'.

Type: Tow > 200 m length. MMSI: 366751770.

Date/timePositionNaut miles runAvg speedWind from/ knotsBaromVisibWave heightAir tempDewpointWater temp
2018-Apr-19 23:17N 47°32' W 122°20'0 0.0
2018-Apr-19 23:00N 47°32' W 122°20'0 0.0
2018-Apr-19 22:30N 47°32' W 122°20'0 0.0
2018-Apr-19 22:00N 47°32' W 122°20'0 0.0
2018-Apr-19 21:30N 47°32' W 122°20'0 0.0
2018-Apr-19 21:00N 47°32' W 122°20'0 0.0
2018-Apr-19 20:30N 47°32' W 122°20'0 0.0
2018-Apr-19 20:00N 47°32' W 122°20'0 0.0
2018-Apr-19 19:30N 47°32' W 122°20'0 0.0
2018-Apr-19 19:00N 47°32' W 122°20'1 1.2
2018-Apr-19 18:31N 47°33' W 122°20'2 3.0
2018-Apr-19 18:00N 47°34' W 122°21'2 3.6
2018-Apr-19 17:30N 47°36' W 122°22'4 8.2
2018-Apr-19 17:00N 47°33' W 122°27'5 9.8
2018-Apr-19 16:30N 47°29' W 122°30'5 9.8
2018-Apr-19 16:00N 47°24' W 122°32'5 9.2
2018-Apr-19 15:30N 47°19' W 122°31'4 9.1
2018-Apr-19 15:01N 47°17' W 122°26'0 0.7
2018-Apr-19 14:30N 47°17' W 122°25'0 0.2
2018-Apr-19 14:00N 47°17' W 122°25'0 0.2
2018-Apr-19 13:28N 47°17' W 122°25'1 0.1
2018-Apr-18 15:41N 47°17' W 122°23'1 3.7
2018-Apr-18 15:30N 47°17' W 122°24'1 3.0
2018-Apr-18 15:00N 47°18' W 122°26'3 6.3
2018-Apr-18 14:30N 47°21' W 122°26'4 7.9
2018-Apr-18 14:01N 47°24' W 122°22'4 8.8
2018-Apr-18 13:30N 47°28' W 122°25'4 8.8
2018-Apr-18 13:01N 47°32' W 122°27'4 8.5
2018-Apr-18 12:30N 47°36' W 122°28'4 8.9
2018-Apr-18 12:00N 47°41' W 122°29'4 8.6
2018-Apr-18 11:31N 47°45' W 122°27'4 8.9
2018-Apr-18 11:01N 47°49' W 122°28'4 8.8
2018-Apr-18 10:31N 47°53' W 122°30'5 8.9
2018-Apr-18 10:00N 47°57' W 122°34'5 9.0
2018-Apr-18 09:28N 48°01' W 122°38'13 8.4
2018-Apr-18 07:55N 48°11' W 122°50'4 8.2
2018-Apr-18 07:29N 48°14' W 122°53'5 8.3
2018-Apr-18 06:51N 48°18' W 122°58'4 9.4
2018-Apr-18 06:27N 48°22' W 123°01'4 9.2
2018-Apr-18 06:00N 48°25' W 123°04'5 9.8
2018-Apr-18 05:30N 48°29' W 123°09'4 8.3
2018-Apr-18 05:00N 48°32' W 123°13'5 9.7
2018-Apr-18 04:27N 48°37' W 123°14'4 9.1
2018-Apr-18 03:59N 48°41' W 123°15'3 5.2
2018-Apr-18 03:29N 48°43' W 123°12'4 8.9
2018-Apr-18 03:00N 48°45' W 123°06'5 5.3
2018-Apr-18 02:08N 48°49' W 123°02'4 4.0
2018-Apr-18 01:07N 48°50' W 123°08'0 3.6
2018-Apr-18 00:59N 48°50' W 123°09'0 0.2
2018-Apr-17 22:48N 48°50' W 123°09'1 0.7
2018-Apr-17 21:39N 48°49' W 123°08'1 3.0
2018-Apr-17 21:28N 48°50' W 123°09'4 3.0
2018-Apr-17 20:11N 48°52' W 123°14'1 2.6
2018-Apr-17 19:52N 48°51' W 123°13'2 1.8
2018-Apr-17 18:58N 48°50' W 123°11'1 1.0
2018-Apr-17 18:28N 48°50' W 123°10'10 3.7
2018-Apr-17 15:54N 48°50' W 122°55'5 6.5
2018-Apr-17 15:09N 48°47' W 122°50'1 6.8
2018-Apr-17 15:00N 48°46' W 122°48'4 7.4
2018-Apr-17 14:30N 48°44' W 122°45'4 7.8
2018-Apr-17 14:00N 48°40' W 122°42'4 8.0
2018-Apr-17 13:30N 48°36' W 122°45'4 8.6
2018-Apr-17 13:00N 48°32' W 122°45'4 8.3
2018-Apr-17 12:31N 48°28' W 122°46'4 7.2
2018-Apr-17 12:00N 48°26' W 122°42'3 5.3
2018-Apr-17 11:30N 48°24' W 122°39'29 5.3
2018-Apr-17 06:04N 47°58' W 122°20'1 9.7
2018-Apr-17 06:00N 47°58' W 122°20'5 9.1
2018-Apr-17 05:31N 47°54' W 122°22'510.3
2018-Apr-17 05:00N 47°49' W 122°25'510.5
2018-Apr-17 04:30N 47°44' W 122°25'510.6
2018-Apr-17 04:00N 47°38' W 122°27'510.4
2018-Apr-17 03:30N 47°35' W 122°22'3 5.2
2018-Apr-17 03:00N 47°32' W 122°20'0 0.1
2018-Apr-17 02:30N 47°32' W 122°20'0 0.0
2018-Apr-17 01:59N 47°32' W 122°20'0 0.0
2018-Apr-17 01:30N 47°32' W 122°20'0 0.0
2018-Apr-17 00:55N 47°32' W 122°20'  
Track history (hours):
 
Tides and Currents Weather Stations Pressure Air Temp Water Temp Dewpoint Dewpoint Depression Visibility Wind Speed Wind Dir Waves Ship Positions

Billie H

Owner: BOYER TOWING INC, KETCHIKAN, AK. More information available from US FCC via Universal Licensing System and Coast Guard Vessel Documentation Center.

Last reported at 2018-Apr-19 23:17 UTC. Time now 2018-Apr-25 10:38 UTC.
Position N 47°32' W 122°20'.

Type: Tow > 200 m length. MMSI: 366751770.

Date/timePositionNaut miles runAvg speedWind from/ knotsBaromVisibWave heightAir tempDewpointWater temp
2018-Apr-19 23:17N 47°32' W 122°20'0 0.0
2018-Apr-19 23:00N 47°32' W 122°20'0 0.0
2018-Apr-19 22:30N 47°32' W 122°20'0 0.0
2018-Apr-19 22:00N 47°32' W 122°20'0 0.0
2018-Apr-19 21:30N 47°32' W 122°20'0 0.0
2018-Apr-19 21:00N 47°32' W 122°20'0 0.0
2018-Apr-19 20:30N 47°32' W 122°20'0 0.0
2018-Apr-19 20:00N 47°32' W 122°20'0 0.0
2018-Apr-19 19:30N 47°32' W 122°20'0 0.0
2018-Apr-19 19:00N 47°32' W 122°20'1 1.2
2018-Apr-19 18:31N 47°33' W 122°20'2 3.0
2018-Apr-19 18:00N 47°34' W 122°21'2 3.6
2018-Apr-19 17:30N 47°36' W 122°22'4 8.2
2018-Apr-19 17:00N 47°33' W 122°27'5 9.8
2018-Apr-19 16:30N 47°29' W 122°30'5 9.8
2018-Apr-19 16:00N 47°24' W 122°32'5 9.2
2018-Apr-19 15:30N 47°19' W 122°31'4 9.1
2018-Apr-19 15:01N 47°17' W 122°26'0 0.7
2018-Apr-19 14:30N 47°17' W 122°25'0 0.2
2018-Apr-19 14:00N 47°17' W 122°25'0 0.2
2018-Apr-19 13:28N 47°17' W 122°25'1 0.1
2018-Apr-18 15:41N 47°17' W 122°23'1 3.7
2018-Apr-18 15:30N 47°17' W 122°24'1 3.0
2018-Apr-18 15:00N 47°18' W 122°26'3 6.3
2018-Apr-18 14:30N 47°21' W 122°26'4 7.9
2018-Apr-18 14:01N 47°24' W 122°22'4 8.8
2018-Apr-18 13:30N 47°28' W 122°25'4 8.8
2018-Apr-18 13:01N 47°32' W 122°27'4 8.5
2018-Apr-18 12:30N 47°36' W 122°28'4 8.9
2018-Apr-18 12:00N 47°41' W 122°29'4 8.6
2018-Apr-18 11:31N 47°45' W 122°27'4 8.9
2018-Apr-18 11:01N 47°49' W 122°28'4 8.8
2018-Apr-18 10:31N 47°53' W 122°30'5 8.9
2018-Apr-18 10:00N 47°57' W 122°34'5 9.0
2018-Apr-18 09:28N 48°01' W 122°38'13 8.4
2018-Apr-18 07:55N 48°11' W 122°50'4 8.2
2018-Apr-18 07:29N 48°14' W 122°53'5 8.3
2018-Apr-18 06:51N 48°18' W 122°58'4 9.4
2018-Apr-18 06:27N 48°22' W 123°01'4 9.2
2018-Apr-18 06:00N 48°25' W 123°04'5 9.8
2018-Apr-18 05:30N 48°29' W 123°09'4 8.3
2018-Apr-18 05:00N 48°32' W 123°13'5 9.7
2018-Apr-18 04:27N 48°37' W 123°14'4 9.1
2018-Apr-18 03:59N 48°41' W 123°15'3 5.2
2018-Apr-18 03:29N 48°43' W 123°12'4 8.9
2018-Apr-18 03:00N 48°45' W 123°06'5 5.3
2018-Apr-18 02:08N 48°49' W 123°02'4 4.0
2018-Apr-18 01:07N 48°50' W 123°08'0 3.6
2018-Apr-18 00:59N 48°50' W 123°09'0 0.2
2018-Apr-17 22:48N 48°50' W 123°09'1 0.7
2018-Apr-17 21:39N 48°49' W 123°08'1 3.0
2018-Apr-17 21:28N 48°50' W 123°09'4 3.0
2018-Apr-17 20:11N 48°52' W 123°14'1 2.6
2018-Apr-17 19:52N 48°51' W 123°13'2 1.8
2018-Apr-17 18:58N 48°50' W 123°11'1 1.0
2018-Apr-17 18:28N 48°50' W 123°10'10 3.7
2018-Apr-17 15:54N 48°50' W 122°55'5 6.5
2018-Apr-17 15:09N 48°47' W 122°50'1 6.8
2018-Apr-17 15:00N 48°46' W 122°48'4 7.4
2018-Apr-17 14:30N 48°44' W 122°45'4 7.8
2018-Apr-17 14:00N 48°40' W 122°42'4 8.0
2018-Apr-17 13:30N 48°36' W 122°45'4 8.6
2018-Apr-17 13:00N 48°32' W 122°45'4 8.3
2018-Apr-17 12:31N 48°28' W 122°46'4 7.2
2018-Apr-17 12:00N 48°26' W 122°42'3 5.3
2018-Apr-17 11:30N 48°24' W 122°39'29 5.3
2018-Apr-17 06:04N 47°58' W 122°20'1 9.7
2018-Apr-17 06:00N 47°58' W 122°20'5 9.1
2018-Apr-17 05:31N 47°54' W 122°22'510.3
2018-Apr-17 05:00N 47°49' W 122°25'510.5
2018-Apr-17 04:30N 47°44' W 122°25'510.6
2018-Apr-17 04:00N 47°38' W 122°27'510.4
2018-Apr-17 03:30N 47°35' W 122°22'3 5.2
2018-Apr-17 03:00N 47°32' W 122°20'0 0.1
2018-Apr-17 02:30N 47°32' W 122°20'0 0.0
2018-Apr-17 01:59N 47°32' W 122°20'0 0.0
2018-Apr-17 01:30N 47°32' W 122°20'0 0.0
2018-Apr-17 00:55N 47°32' W 122°20'  

Dump ship's entire track history